Ternholm — OWIM2 — position and weather

sailwx.info

Track history (hours):
 
Tides and Currents Weather Stations Pressure Air Temp Water Temp Dewpoint Dewpoint Depression Visibility Wind Speed Wind Dir Waves Ship Positions

Ternholm

Last reported at 2017-Jan-23 23:30 UTC. Time now 2017-Jan-24 11:22 UTC.
Position N 55°35' E 015°17'.

Length 141 m; draft 8.7 m.

Type: Tanker. MMSI: 219076000.

Date/timePositionNaut miles runAvg speedWind from/ knotsBaromVisibWave heightAir tempDewpointWater temp
2017-Jan-23 23:30N 55°35' E 015°17'1010.7
2017-Jan-23 22:33N 55°31' E 015°02'1111.1
2017-Jan-23 21:33N 55°26' E 014°44'1111.0
2017-Jan-23 20:33N 55°18' E 014°31'1111.0
2017-Jan-23 19:33N 55°09' E 014°19'1111.2
2017-Jan-23 18:33N 55°01' E 014°06'1211.9
2017-Jan-23 17:33N 54°57' E 013°46'3511.7
2017-Jan-23 14:33N 54°46' E 012°48'1111.3
2017-Jan-23 13:33N 54°41' E 012°31'1110.8
2017-Jan-23 12:33N 54°33' E 012°17'1110.1
2017-Jan-23 11:30N 54°24' E 012°08'1110.8
2017-Jan-23 10:27N 54°25' E 011°49'1011.3
2017-Jan-23 09:33N 54°29' E 011°33'1110.6
2017-Jan-23 08:33N 54°33' E 011°16'1010.5
2017-Jan-23 07:33N 54°38' E 011°00'9 9.1
2017-Jan-23 06:33N 54°46' E 010°51'9 9.0
2017-Jan-23 05:33N 54°55' E 010°53'9 8.9
2017-Jan-23 04:33N 55°02' E 011°02'9 9.5
2017-Jan-23 03:33N 55°12' E 011°05'10 9.6
2017-Jan-23 02:31N 55°22' E 011°02'1010.5
2017-Jan-23 01:33N 55°30' E 010°53'20 9.8
2017-Jan-22 23:33N 55°50' E 010°48'1010.1
2017-Jan-22 22:33N 55°57' E 010°60'2010.1
2017-Jan-22 20:33N 56°14' E 011°20'2411.1
2017-Jan-22 18:25N 56°35' E 011°41'1011.1
2017-Jan-22 17:31N 56°44' E 011°50'1210.9
2017-Jan-22 16:25N 56°55' E 011°45'1111.6
2017-Jan-22 15:31N 57°05' E 011°38'1111.4
2017-Jan-22 14:33N 57°15' E 011°31'1110.9
2017-Jan-22 13:33N 57°26' E 011°33'1010.0
2017-Jan-22 12:33N 57°35' E 011°41'0 0.2
2017-Jan-22 11:33N 57°35' E 011°41'0 0.1
2017-Jan-22 10:33N 57°35' E 011°41'2 2.4
2017-Jan-22 09:33N 57°38' E 011°41'8 7.5
2017-Jan-22 08:33N 57°41' E 011°53'0 0.2
2017-Jan-22 07:31N 57°41' E 011°53'0 0.0
2017-Jan-22 06:31N 57°41' E 011°53'0 0.0
2017-Jan-22 05:31N 57°41' E 011°53'0 0.0
2017-Jan-22 04:31N 57°41' E 011°53'0 0.0
2017-Jan-22 03:31N 57°41' E 011°53'0 0.0
2017-Jan-22 02:31N 57°41' E 011°53'0 0.0
2017-Jan-22 01:31N 57°41' E 011°53'0 0.0
2017-Jan-22 00:31N 57°41' E 011°53'0 0.0
2017-Jan-21 23:31N 57°41' E 011°53'0 0.0
2017-Jan-21 22:31N 57°41' E 011°53'0 0.0
2017-Jan-21 21:31N 57°41' E 011°53'0 0.0
2017-Jan-21 20:31N 57°41' E 011°53'0 0.0
2017-Jan-21 19:31N 57°41' E 011°53'0 0.0
2017-Jan-21 18:31N 57°41' E 011°53'0 0.0
2017-Jan-21 17:31N 57°41' E 011°53'0 0.0
2017-Jan-21 16:31N 57°41' E 011°53'0 0.0
2017-Jan-21 15:31N 57°41' E 011°53'0 0.0
2017-Jan-21 14:31N 57°41' E 011°53'0 0.1
2017-Jan-21 13:34N 57°41' E 011°53'0 0.5
2017-Jan-21 12:31N 57°41' E 011°52'0 0.0
2017-Jan-21 11:31N 57°41' E 011°52'0 0.0
2017-Jan-21 10:31N 57°41' E 011°52'0 0.0
2017-Jan-21 09:31N 57°41' E 011°52'0 0.0
2017-Jan-21 08:31N 57°41' E 011°52'0 0.0
2017-Jan-21 07:31N 57°41' E 011°52'0 0.0
2017-Jan-21 06:31N 57°41' E 011°52'0 0.0
2017-Jan-21 05:31N 57°41' E 011°52'0 0.0
2017-Jan-21 04:31N 57°41' E 011°52'0 0.0
2017-Jan-21 03:31N 57°41' E 011°52'0 0.0
2017-Jan-21 02:31N 57°41' E 011°52'0 0.0
2017-Jan-21 01:31N 57°41' E 011°52'0 0.0
2017-Jan-21 00:31N 57°41' E 011°52'0 0.0
2017-Jan-20 23:31N 57°41' E 011°52'0 0.0
2017-Jan-20 22:31N 57°41' E 011°52'0 0.0
2017-Jan-20 21:31N 57°41' E 011°52'0 0.0
2017-Jan-20 20:31N 57°41' E 011°52'0 0.0
2017-Jan-20 19:31N 57°41' E 011°52'0 0.0
2017-Jan-20 18:31N 57°41' E 011°52'0 0.0
2017-Jan-20 17:31N 57°41' E 011°52'0 0.0
2017-Jan-20 16:31N 57°41' E 011°52'0 0.0
2017-Jan-20 15:31N 57°41' E 011°52'0 0.0
2017-Jan-20 14:31N 57°41' E 011°52'0 0.0
2017-Jan-20 13:31N 57°41' E 011°52'0 0.0
2017-Jan-20 12:31N 57°41' E 011°52'0 0.0
2017-Jan-20 11:34N 57°41' E 011°52'0 0.0
2017-Jan-20 10:33N 57°41' E 011°52'0 0.0
2017-Jan-20 09:33N 57°41' E 011°52'0 0.0
2017-Jan-20 08:33N 57°41' E 011°52'0 0.0
2017-Jan-20 07:33N 57°41' E 011°52'0 0.0
2017-Jan-20 06:33N 57°41' E 011°52'0 0.0
2017-Jan-20 05:33N 57°41' E 011°52'0 0.0
2017-Jan-20 04:33N 57°41' E 011°52'0 0.0
2017-Jan-20 03:33N 57°41' E 011°52'0 0.0
2017-Jan-20 02:33N 57°41' E 011°52'0 0.0
2017-Jan-20 01:33N 57°41' E 011°52'0 0.0
2017-Jan-20 00:33N 57°41' E 011°52'0 0.0
2017-Jan-19 23:33N 57°41' E 011°52'0 0.0
2017-Jan-19 22:33N 57°41' E 011°52'0 0.0
2017-Jan-19 21:33N 57°41' E 011°52'0 0.0
2017-Jan-19 20:33N 57°41' E 011°52'0 0.0
2017-Jan-19 19:33N 57°41' E 011°52'0 0.0
2017-Jan-19 18:33N 57°41' E 011°52'0 0.0
2017-Jan-19 17:33N 57°41' E 011°52'0 0.0
2017-Jan-19 16:33N 57°41' E 011°52'0 0.0
2017-Jan-19 15:33N 57°41' E 011°52'0 0.0
2017-Jan-19 14:33N 57°41' E 011°52'0 0.0
2017-Jan-19 13:33N 57°41' E 011°52'3 3.5
2017-Jan-19 12:33N 57°40' E 011°47'5 4.9
2017-Jan-19 11:32N 57°35' E 011°42'0 0.0
2017-Jan-19 10:32N 57°35' E 011°42'0 0.0
2017-Jan-19 09:32N 57°36' E 011°42'0 0.0
2017-Jan-19 08:32N 57°35' E 011°42'0 0.0
2017-Jan-19 07:32N 57°36' E 011°42'0 0.0
2017-Jan-19 06:32N 57°36' E 011°42'0 0.0
2017-Jan-19 05:32N 57°36' E 011°42'0 0.0
2017-Jan-19 04:32N 57°36' E 011°42'0 0.0
2017-Jan-19 03:32N 57°36' E 011°42'0 0.0
2017-Jan-19 02:32N 57°36' E 011°42'0 0.0
2017-Jan-19 01:31N 57°36' E 011°42'0 0.0
2017-Jan-19 00:31N 57°36' E 011°42'0 0.0
2017-Jan-18 23:33N 57°36' E 011°42'0 0.0
2017-Jan-18 22:33N 57°36' E 011°42'0 0.0
2017-Jan-18 21:33N 57°36' E 011°42'0 0.0
2017-Jan-18 20:33N 57°36' E 011°42'0 0.0
2017-Jan-18 19:33N 57°36' E 011°42'0 0.0
2017-Jan-18 18:33N 57°36' E 011°42'0 0.0
2017-Jan-18 17:33N 57°36' E 011°42'0 0.0
2017-Jan-18 16:33N 57°36' E 011°42'0 0.0
2017-Jan-18 15:33N 57°36' E 011°42'6 5.7
2017-Jan-18 14:33N 57°37' E 011°31'1111.4
2017-Jan-18 13:33N 57°47' E 011°20'1211.6
2017-Jan-18 12:33N 57°58' E 011°16'1010.3
2017-Jan-18 11:33N 58°09' E 011°14'10 9.5
2017-Jan-18 10:33N 58°18' E 011°19'2 0.1
2017-Jan-17 14:33N 58°20' E 011°22'1 0.8
2017-Jan-17 13:28N 58°20' E 011°24'0 0.0
2017-Jan-17 12:28N 58°20' E 011°24'0 0.0
2017-Jan-17 11:28N 58°20' E 011°24'0 0.0
2017-Jan-17 10:28N 58°20' E 011°24'0 0.0
2017-Jan-17 09:28N 58°20' E 011°24'0 0.0
2017-Jan-17 08:28N 58°20' E 011°24'0 0.0
2017-Jan-17 07:28N 58°20' E 011°24'0 0.0
2017-Jan-17 06:28N 58°20' E 011°24'0 0.0
2017-Jan-17 05:28N 58°20' E 011°24'0 0.0
2017-Jan-17 04:28N 58°20' E 011°23'0 0.0
2017-Jan-17 03:28N 58°20' E 011°23'0 0.0
2017-Jan-17 02:28N 58°20' E 011°23'0 0.0
2017-Jan-17 01:28N 58°20' E 011°23'0 0.0
2017-Jan-17 00:28N 58°20' E 011°23'0 0.0
2017-Jan-16 23:28N 58°20' E 011°23'0 0.0
2017-Jan-16 22:28N 58°20' E 011°23'0 0.1
2017-Jan-16 21:28N 58°20' E 011°23'0 0.0
2017-Jan-16 20:28N 58°20' E 011°23'0 0.0
2017-Jan-16 19:28N 58°20' E 011°23'0 0.0
2017-Jan-16 16:28N 58°20' E 011°23'0 0.0
2017-Jan-16 15:04N 58°20' E 011°23'0 0.0
2017-Jan-16 12:10N 58°20' E 011°23'0 0.0
2017-Jan-16 11:28N 58°20' E 011°23'0 0.0
2017-Jan-16 09:33N 58°20' E 011°23'0 0.0
2017-Jan-16 05:33N 58°20' E 011°23'0 0.0
2017-Jan-16 03:09N 58°20' E 011°23'0 0.0
2017-Jan-16 02:21N 58°20' E 011°23'0 0.0
2017-Jan-16 01:33N 58°20' E 011°23'0 0.0
2017-Jan-15 23:33N 58°20' E 011°23'6 6.4
2017-Jan-15 22:33N 58°15' E 011°15'1211.4
2017-Jan-15 21:30N 58°03' E 011°14'1111.5
2017-Jan-15 20:33N 57°53' E 011°17'1212.0
2017-Jan-15 19:33N 57°41' E 011°22'1211.8
2017-Jan-15 18:33N 57°29' E 011°28'1211.9
2017-Jan-15 17:33N 57°18' E 011°34'1211.8
2017-Jan-15 16:32N 57°07' E 011°41'5911.8
2017-Jan-15 11:33N 56°13' E 012°24'1312.5
2017-Jan-15 10:33N 56°04' E 012°39'1212.2
2017-Jan-15 09:33N 55°52' E 012°45'1212.4
2017-Jan-15 08:33N 55°41' E 012°55'9 9.2
2017-Jan-15 07:33N 55°33' E 012°47'1110.7
2017-Jan-15 06:33N 55°23' E 012°41'9 9.0
2017-Jan-15 05:33N 55°16' E 012°51'1111.4
2017-Jan-15 04:33N 55°15' E 013°11'1211.9
2017-Jan-15 03:33N 55°15' E 013°32'1211.7
2017-Jan-15 02:33N 55°14' E 013°53'1111.5
2017-Jan-15 01:33N 55°13' E 014°13'1110.5
2017-Jan-15 00:33N 55°21' E 014°26'1111.0
2017-Jan-14 23:33N 55°29' E 014°39'1211.5
2017-Jan-14 22:33N 55°35' E 014°57'1211.7
2017-Jan-14 21:31N 55°40' E 015°16'  
Track history (hours):
 
Tides and Currents Weather Stations Pressure Air Temp Water Temp Dewpoint Dewpoint Depression Visibility Wind Speed Wind Dir Waves Ship Positions

Ternholm

Last reported at 2017-Jan-23 23:30 UTC. Time now 2017-Jan-24 11:22 UTC.
Position N 55°35' E 015°17'.

Length 141 m; draft 8.7 m.

Type: Tanker. MMSI: 219076000.

Date/timePositionNaut miles runAvg speedWind from/ knotsBaromVisibWave heightAir tempDewpointWater temp
2017-Jan-23 23:30N 55°35' E 015°17'1010.7
2017-Jan-23 22:33N 55°31' E 015°02'1111.1
2017-Jan-23 21:33N 55°26' E 014°44'1111.0
2017-Jan-23 20:33N 55°18' E 014°31'1111.0
2017-Jan-23 19:33N 55°09' E 014°19'1111.2
2017-Jan-23 18:33N 55°01' E 014°06'1211.9
2017-Jan-23 17:33N 54°57' E 013°46'3511.7
2017-Jan-23 14:33N 54°46' E 012°48'1111.3
2017-Jan-23 13:33N 54°41' E 012°31'1110.8
2017-Jan-23 12:33N 54°33' E 012°17'1110.1
2017-Jan-23 11:30N 54°24' E 012°08'1110.8
2017-Jan-23 10:27N 54°25' E 011°49'1011.3
2017-Jan-23 09:33N 54°29' E 011°33'1110.6
2017-Jan-23 08:33N 54°33' E 011°16'1010.5
2017-Jan-23 07:33N 54°38' E 011°00'9 9.1
2017-Jan-23 06:33N 54°46' E 010°51'9 9.0
2017-Jan-23 05:33N 54°55' E 010°53'9 8.9
2017-Jan-23 04:33N 55°02' E 011°02'9 9.5
2017-Jan-23 03:33N 55°12' E 011°05'10 9.6
2017-Jan-23 02:31N 55°22' E 011°02'1010.5
2017-Jan-23 01:33N 55°30' E 010°53'20 9.8
2017-Jan-22 23:33N 55°50' E 010°48'1010.1
2017-Jan-22 22:33N 55°57' E 010°60'2010.1
2017-Jan-22 20:33N 56°14' E 011°20'2411.1
2017-Jan-22 18:25N 56°35' E 011°41'1011.1
2017-Jan-22 17:31N 56°44' E 011°50'1210.9
2017-Jan-22 16:25N 56°55' E 011°45'1111.6
2017-Jan-22 15:31N 57°05' E 011°38'1111.4
2017-Jan-22 14:33N 57°15' E 011°31'1110.9
2017-Jan-22 13:33N 57°26' E 011°33'1010.0
2017-Jan-22 12:33N 57°35' E 011°41'0 0.2
2017-Jan-22 11:33N 57°35' E 011°41'0 0.1
2017-Jan-22 10:33N 57°35' E 011°41'2 2.4
2017-Jan-22 09:33N 57°38' E 011°41'8 7.5
2017-Jan-22 08:33N 57°41' E 011°53'0 0.2
2017-Jan-22 07:31N 57°41' E 011°53'0 0.0
2017-Jan-22 06:31N 57°41' E 011°53'0 0.0
2017-Jan-22 05:31N 57°41' E 011°53'0 0.0
2017-Jan-22 04:31N 57°41' E 011°53'0 0.0
2017-Jan-22 03:31N 57°41' E 011°53'0 0.0
2017-Jan-22 02:31N 57°41' E 011°53'0 0.0
2017-Jan-22 01:31N 57°41' E 011°53'0 0.0
2017-Jan-22 00:31N 57°41' E 011°53'0 0.0
2017-Jan-21 23:31N 57°41' E 011°53'0 0.0
2017-Jan-21 22:31N 57°41' E 011°53'0 0.0
2017-Jan-21 21:31N 57°41' E 011°53'0 0.0
2017-Jan-21 20:31N 57°41' E 011°53'0 0.0
2017-Jan-21 19:31N 57°41' E 011°53'0 0.0
2017-Jan-21 18:31N 57°41' E 011°53'0 0.0
2017-Jan-21 17:31N 57°41' E 011°53'0 0.0
2017-Jan-21 16:31N 57°41' E 011°53'0 0.0
2017-Jan-21 15:31N 57°41' E 011°53'0 0.0
2017-Jan-21 14:31N 57°41' E 011°53'0 0.1
2017-Jan-21 13:34N 57°41' E 011°53'0 0.5
2017-Jan-21 12:31N 57°41' E 011°52'0 0.0
2017-Jan-21 11:31N 57°41' E 011°52'0 0.0
2017-Jan-21 10:31N 57°41' E 011°52'0 0.0
2017-Jan-21 09:31N 57°41' E 011°52'0 0.0
2017-Jan-21 08:31N 57°41' E 011°52'0 0.0
2017-Jan-21 07:31N 57°41' E 011°52'0 0.0
2017-Jan-21 06:31N 57°41' E 011°52'0 0.0
2017-Jan-21 05:31N 57°41' E 011°52'0 0.0
2017-Jan-21 04:31N 57°41' E 011°52'0 0.0
2017-Jan-21 03:31N 57°41' E 011°52'0 0.0
2017-Jan-21 02:31N 57°41' E 011°52'0 0.0
2017-Jan-21 01:31N 57°41' E 011°52'0 0.0
2017-Jan-21 00:31N 57°41' E 011°52'0 0.0
2017-Jan-20 23:31N 57°41' E 011°52'0 0.0
2017-Jan-20 22:31N 57°41' E 011°52'0 0.0
2017-Jan-20 21:31N 57°41' E 011°52'0 0.0
2017-Jan-20 20:31N 57°41' E 011°52'0 0.0
2017-Jan-20 19:31N 57°41' E 011°52'0 0.0
2017-Jan-20 18:31N 57°41' E 011°52'0 0.0
2017-Jan-20 17:31N 57°41' E 011°52'0 0.0
2017-Jan-20 16:31N 57°41' E 011°52'0 0.0
2017-Jan-20 15:31N 57°41' E 011°52'0 0.0
2017-Jan-20 14:31N 57°41' E 011°52'0 0.0
2017-Jan-20 13:31N 57°41' E 011°52'0 0.0
2017-Jan-20 12:31N 57°41' E 011°52'0 0.0
2017-Jan-20 11:34N 57°41' E 011°52'0 0.0
2017-Jan-20 10:33N 57°41' E 011°52'0 0.0
2017-Jan-20 09:33N 57°41' E 011°52'0 0.0
2017-Jan-20 08:33N 57°41' E 011°52'0 0.0
2017-Jan-20 07:33N 57°41' E 011°52'0 0.0
2017-Jan-20 06:33N 57°41' E 011°52'0 0.0
2017-Jan-20 05:33N 57°41' E 011°52'0 0.0
2017-Jan-20 04:33N 57°41' E 011°52'0 0.0
2017-Jan-20 03:33N 57°41' E 011°52'0 0.0
2017-Jan-20 02:33N 57°41' E 011°52'0 0.0
2017-Jan-20 01:33N 57°41' E 011°52'0 0.0
2017-Jan-20 00:33N 57°41' E 011°52'0 0.0
2017-Jan-19 23:33N 57°41' E 011°52'0 0.0
2017-Jan-19 22:33N 57°41' E 011°52'0 0.0
2017-Jan-19 21:33N 57°41' E 011°52'0 0.0
2017-Jan-19 20:33N 57°41' E 011°52'0 0.0
2017-Jan-19 19:33N 57°41' E 011°52'0 0.0
2017-Jan-19 18:33N 57°41' E 011°52'0 0.0
2017-Jan-19 17:33N 57°41' E 011°52'0 0.0
2017-Jan-19 16:33N 57°41' E 011°52'0 0.0
2017-Jan-19 15:33N 57°41' E 011°52'0 0.0
2017-Jan-19 14:33N 57°41' E 011°52'0 0.0
2017-Jan-19 13:33N 57°41' E 011°52'3 3.5
2017-Jan-19 12:33N 57°40' E 011°47'5 4.9
2017-Jan-19 11:32N 57°35' E 011°42'0 0.0
2017-Jan-19 10:32N 57°35' E 011°42'0 0.0
2017-Jan-19 09:32N 57°36' E 011°42'0 0.0
2017-Jan-19 08:32N 57°35' E 011°42'0 0.0
2017-Jan-19 07:32N 57°36' E 011°42'0 0.0
2017-Jan-19 06:32N 57°36' E 011°42'0 0.0
2017-Jan-19 05:32N 57°36' E 011°42'0 0.0
2017-Jan-19 04:32N 57°36' E 011°42'0 0.0
2017-Jan-19 03:32N 57°36' E 011°42'0 0.0
2017-Jan-19 02:32N 57°36' E 011°42'0 0.0
2017-Jan-19 01:31N 57°36' E 011°42'0 0.0
2017-Jan-19 00:31N 57°36' E 011°42'0 0.0
2017-Jan-18 23:33N 57°36' E 011°42'0 0.0
2017-Jan-18 22:33N 57°36' E 011°42'0 0.0
2017-Jan-18 21:33N 57°36' E 011°42'0 0.0
2017-Jan-18 20:33N 57°36' E 011°42'0 0.0
2017-Jan-18 19:33N 57°36' E 011°42'0 0.0
2017-Jan-18 18:33N 57°36' E 011°42'0 0.0
2017-Jan-18 17:33N 57°36' E 011°42'0 0.0
2017-Jan-18 16:33N 57°36' E 011°42'0 0.0
2017-Jan-18 15:33N 57°36' E 011°42'6 5.7
2017-Jan-18 14:33N 57°37' E 011°31'1111.4
2017-Jan-18 13:33N 57°47' E 011°20'1211.6
2017-Jan-18 12:33N 57°58' E 011°16'1010.3
2017-Jan-18 11:33N 58°09' E 011°14'10 9.5
2017-Jan-18 10:33N 58°18' E 011°19'2 0.1
2017-Jan-17 14:33N 58°20' E 011°22'1 0.8
2017-Jan-17 13:28N 58°20' E 011°24'0 0.0
2017-Jan-17 12:28N 58°20' E 011°24'0 0.0
2017-Jan-17 11:28N 58°20' E 011°24'0 0.0
2017-Jan-17 10:28N 58°20' E 011°24'0 0.0
2017-Jan-17 09:28N 58°20' E 011°24'0 0.0
2017-Jan-17 08:28N 58°20' E 011°24'0 0.0
2017-Jan-17 07:28N 58°20' E 011°24'0 0.0
2017-Jan-17 06:28N 58°20' E 011°24'0 0.0
2017-Jan-17 05:28N 58°20' E 011°24'0 0.0
2017-Jan-17 04:28N 58°20' E 011°23'0 0.0
2017-Jan-17 03:28N 58°20' E 011°23'0 0.0
2017-Jan-17 02:28N 58°20' E 011°23'0 0.0
2017-Jan-17 01:28N 58°20' E 011°23'0 0.0
2017-Jan-17 00:28N 58°20' E 011°23'0 0.0
2017-Jan-16 23:28N 58°20' E 011°23'0 0.0
2017-Jan-16 22:28N 58°20' E 011°23'0 0.1
2017-Jan-16 21:28N 58°20' E 011°23'0 0.0
2017-Jan-16 20:28N 58°20' E 011°23'0 0.0
2017-Jan-16 19:28N 58°20' E 011°23'0 0.0
2017-Jan-16 16:28N 58°20' E 011°23'0 0.0
2017-Jan-16 15:04N 58°20' E 011°23'0 0.0
2017-Jan-16 12:10N 58°20' E 011°23'0 0.0
2017-Jan-16 11:28N 58°20' E 011°23'0 0.0
2017-Jan-16 09:33N 58°20' E 011°23'0 0.0
2017-Jan-16 05:33N 58°20' E 011°23'0 0.0
2017-Jan-16 03:09N 58°20' E 011°23'0 0.0
2017-Jan-16 02:21N 58°20' E 011°23'0 0.0
2017-Jan-16 01:33N 58°20' E 011°23'0 0.0
2017-Jan-15 23:33N 58°20' E 011°23'6 6.4
2017-Jan-15 22:33N 58°15' E 011°15'1211.4
2017-Jan-15 21:30N 58°03' E 011°14'1111.5
2017-Jan-15 20:33N 57°53' E 011°17'1212.0
2017-Jan-15 19:33N 57°41' E 011°22'1211.8
2017-Jan-15 18:33N 57°29' E 011°28'1211.9
2017-Jan-15 17:33N 57°18' E 011°34'1211.8
2017-Jan-15 16:32N 57°07' E 011°41'5911.8
2017-Jan-15 11:33N 56°13' E 012°24'1312.5
2017-Jan-15 10:33N 56°04' E 012°39'1212.2
2017-Jan-15 09:33N 55°52' E 012°45'1212.4
2017-Jan-15 08:33N 55°41' E 012°55'9 9.2
2017-Jan-15 07:33N 55°33' E 012°47'1110.7
2017-Jan-15 06:33N 55°23' E 012°41'9 9.0
2017-Jan-15 05:33N 55°16' E 012°51'1111.4
2017-Jan-15 04:33N 55°15' E 013°11'1211.9
2017-Jan-15 03:33N 55°15' E 013°32'1211.7
2017-Jan-15 02:33N 55°14' E 013°53'1111.5
2017-Jan-15 01:33N 55°13' E 014°13'1110.5
2017-Jan-15 00:33N 55°21' E 014°26'1111.0
2017-Jan-14 23:33N 55°29' E 014°39'1211.5
2017-Jan-14 22:33N 55°35' E 014°57'1211.7
2017-Jan-14 21:31N 55°40' E 015°16'  

Dump ship's entire track history